createdAt,value
2018-08-03T00:00:07.324Z,8.10
2018-08-03T00:02:36.150Z,7.33
2018-08-03T00:05:04.961Z,8.43
2018-08-03T00:07:33.799Z,8.13
2018-08-03T00:10:02.663Z,8.07
2018-08-03T00:12:31.431Z,7.67
2018-08-03T00:15:00.377Z,6.97
2018-08-03T00:17:29.177Z,7.13
2018-08-03T00:19:57.989Z,7.67
2018-08-03T00:22:26.844Z,8.03
2018-08-03T00:24:55.662Z,8.00
2018-08-03T00:27:24.531Z,7.67
2018-08-03T00:29:53.345Z,7.53
2018-08-03T00:32:22.250Z,7.90
2018-08-03T00:34:51.125Z,7.80
2018-08-03T00:37:19.991Z,7.60
2018-08-03T00:39:48.807Z,7.70
2018-08-03T00:42:17.622Z,7.20
2018-08-03T00:44:46.661Z,7.57
2018-08-03T00:47:15.480Z,8.07
2018-08-03T00:49:44.280Z,7.37
2018-08-03T00:52:13.159Z,8.33
2018-08-03T00:54:41.957Z,7.43
2018-08-03T00:57:10.761Z,8.37
2018-08-03T00:59:39.637Z,7.80
2018-08-03T01:02:08.484Z,7.93
2018-08-03T01:04:37.465Z,8.20
2018-08-03T01:07:06.321Z,7.60
2018-08-03T01:09:35.164Z,7.50
2018-08-03T01:12:04.386Z,7.97
2018-08-03T01:14:33.184Z,7.57
2018-08-03T01:17:02.106Z,8.63
2018-08-03T01:19:30.980Z,8.43
2018-08-03T01:21:59.758Z,8.77
2018-08-03T01:24:28.651Z,8.43
2018-08-03T01:26:57.495Z,8.83
2018-08-03T01:29:26.489Z,8.40
2018-08-03T01:31:55.366Z,8.53
2018-08-03T01:34:24.233Z,8.27
2018-08-03T01:36:53.039Z,8.57
2018-08-03T01:39:21.915Z,9.17
2018-08-03T01:41:50.734Z,7.83
2018-08-03T01:44:19.650Z,8.57
2018-08-03T01:46:48.468Z,8.33
2018-08-03T01:49:17.315Z,8.40
2018-08-03T01:51:46.130Z,7.97
2018-08-03T01:54:14.943Z,8.87
2018-08-03T01:56:43.792Z,7.93
2018-08-03T01:59:12.685Z,8.87
2018-08-03T02:01:41.463Z,9.07
2018-08-03T02:04:10.380Z,8.50
2018-08-03T02:06:39.275Z,8.47
2018-08-03T02:09:09.340Z,8.57
2018-08-03T02:11:38.646Z,8.80
2018-08-03T02:14:07.504Z,8.77
2018-08-03T02:16:36.426Z,8.43
2018-08-03T02:19:05.301Z,8.97
2018-08-03T02:21:34.080Z,8.83
2018-08-03T02:24:02.903Z,8.60
2018-08-03T02:26:31.763Z,9.93
2018-08-03T02:29:00.561Z,9.70
2018-08-03T02:31:29.351Z,9.43
2018-08-03T02:33:58.201Z,10.07
2018-08-03T02:36:27.057Z,10.73
2018-08-03T02:38:55.897Z,10.77
2018-08-03T02:41:24.769Z,12.53
2018-08-03T02:43:53.663Z,14.53
2018-08-03T02:46:22.539Z,13.43
2018-08-03T02:48:51.352Z,12.20
2018-08-03T02:51:20.160Z,11.73
2018-08-03T02:53:49.003Z,12.63
2018-08-03T02:56:17.779Z,10.83
2018-08-03T02:58:46.593Z,10.60
2018-08-03T03:01:15.506Z,10.93
2018-08-03T03:03:44.369Z,10.17
2018-08-03T03:06:13.189Z,9.90
2018-08-03T03:08:42.070Z,10.77
2018-08-03T03:11:10.934Z,10.53
2018-08-03T03:13:39.827Z,10.60
2018-08-03T03:16:08.644Z,9.87
2018-08-03T03:18:38.727Z,10.10
2018-08-03T03:21:07.759Z,10.47
2018-08-03T03:23:36.641Z,10.00
2018-08-03T03:26:06.907Z,10.47
2018-08-03T03:28:35.697Z,9.70
2018-08-03T03:31:04.594Z,9.83
2018-08-03T03:33:33.568Z,9.90
2018-08-03T03:36:02.342Z,8.83
2018-08-03T03:38:31.172Z,10.27
2018-08-03T03:41:00.073Z,10.43
2018-08-03T03:43:28.926Z,10.10
2018-08-03T03:45:57.740Z,10.97
2018-08-03T03:48:26.604Z,10.47
2018-08-03T03:50:55.455Z,10.27
2018-08-03T03:53:24.304Z,10.43
2018-08-03T03:55:53.144Z,10.67
2018-08-03T03:58:21.972Z,10.40
2018-08-03T04:00:50.840Z,10.97
2018-08-03T04:03:19.783Z,11.60
2018-08-03T04:05:48.577Z,10.67
2018-08-03T04:08:17.504Z,11.60
2018-08-03T04:10:46.430Z,11.30
2018-08-03T04:13:15.264Z,13.33
2018-08-03T04:15:44.118Z,12.23
2018-08-03T04:18:20.302Z,10.53
2018-08-03T04:20:49.777Z,11.20
2018-08-03T04:23:19.038Z,10.90
2018-08-03T04:25:47.875Z,12.00
2018-08-03T04:28:16.715Z,10.63
2018-08-03T04:30:46.786Z,12.37
2018-08-03T04:33:15.589Z,12.73
2018-08-03T04:35:44.392Z,12.67
2018-08-03T04:38:13.252Z,11.83
2018-08-03T04:40:42.040Z,11.77
2018-08-03T04:43:12.273Z,12.43
2018-08-03T04:45:42.333Z,11.33
2018-08-03T04:48:11.240Z,11.40
2018-08-03T04:50:40.114Z,10.87
2018-08-03T04:53:08.961Z,12.33
2018-08-03T04:55:37.762Z,10.67
2018-08-03T04:58:06.612Z,10.13
2018-08-03T05:00:35.492Z,11.00
2018-08-03T05:03:04.356Z,10.33
2018-08-03T05:05:33.240Z,11.77
2018-08-03T05:08:02.123Z,10.97
2018-08-03T05:10:30.927Z,10.00
2018-08-03T05:12:59.756Z,10.27
2018-08-03T05:15:28.581Z,10.30
2018-08-03T05:17:57.361Z,11.37
2018-08-03T05:20:26.251Z,10.63
2018-08-03T05:22:55.199Z,11.50
2018-08-03T05:25:24.117Z,11.23
2018-08-03T05:27:52.955Z,11.33
2018-08-03T05:30:21.903Z,11.27
2018-08-03T05:32:50.799Z,10.63
2018-08-03T05:35:19.710Z,10.30
2018-08-03T05:37:48.522Z,10.47
2018-08-03T05:40:17.488Z,10.67
2018-08-03T05:42:46.326Z,9.40
2018-08-03T05:45:15.325Z,9.90
2018-08-03T05:47:44.201Z,10.70
2018-08-03T05:50:13.060Z,14.33
2018-08-03T05:52:41.835Z,15.37
2018-08-03T05:55:10.741Z,11.43
2018-08-03T05:57:39.586Z,12.53
2018-08-03T06:00:08.510Z,9.73
2018-08-03T06:02:37.371Z,9.10
2018-08-03T06:05:07.267Z,8.47
2018-08-03T06:07:36.712Z,10.77
2018-08-03T06:10:06.916Z,9.70
2018-08-03T06:12:35.664Z,8.47
2018-08-03T06:15:05.473Z,8.63
2018-08-03T06:17:34.319Z,9.67
2018-08-03T06:20:03.208Z,11.30
2018-08-03T06:22:32.072Z,10.33
2018-08-03T06:25:02.423Z,9.90
2018-08-03T06:27:31.289Z,9.90
2018-08-03T06:30:00.130Z,10.20
2018-08-03T06:32:30.238Z,11.00
2018-08-03T06:34:59.112Z,10.63
2018-08-03T06:37:46.515Z,10.77
2018-08-03T06:40:18.810Z,10.13
2018-08-03T06:42:52.285Z,10.23
2018-08-03T06:45:23.244Z,10.37
2018-08-03T06:48:00.030Z,10.37
2018-08-03T06:50:33.806Z,10.83
2018-08-03T06:53:15.760Z,9.47
2018-08-03T06:55:49.689Z,9.73
2018-08-03T06:58:29.312Z,9.33
2018-08-03T07:01:02.244Z,9.97
2018-08-03T07:03:36.994Z,10.73
2018-08-03T07:06:11.258Z,10.40
2018-08-03T07:08:44.522Z,10.50
2018-08-03T07:11:17.866Z,10.50
2018-08-03T07:13:51.704Z,9.77
2018-08-03T07:16:25.482Z,9.00
2018-08-03T07:19:00.993Z,8.10
2018-08-03T07:21:35.617Z,7.83
2018-08-03T07:24:11.241Z,7.67
2018-08-03T07:26:43.138Z,8.40
2018-08-03T07:29:16.908Z,7.63
2018-08-03T07:31:53.239Z,8.17
2018-08-03T07:34:28.618Z,9.30
2018-08-03T07:37:01.974Z,7.93
2018-08-03T07:39:34.106Z,7.57
2018-08-03T07:42:10.369Z,8.10
2018-08-03T07:47:19.686Z,7.67
2018-08-03T07:58:51.889Z,7.37
2018-08-03T08:01:24.876Z,7.17
2018-08-03T08:04:00.752Z,7.67
2018-08-03T08:06:32.675Z,7.97
2018-08-03T08:09:06.779Z,8.17
2018-08-03T08:11:37.930Z,7.90
2018-08-03T08:14:10.460Z,9.60
2018-08-03T08:16:46.540Z,8.77
2018-08-03T08:19:18.016Z,8.40
2018-08-03T08:21:48.655Z,8.20
2018-08-03T08:24:25.430Z,8.27
2018-08-03T08:26:59.131Z,8.00
2018-08-03T08:29:37.060Z,8.50
2018-08-03T08:32:12.910Z,8.83
2018-08-03T08:34:49.815Z,7.83
2018-08-03T08:37:24.677Z,9.20
2018-08-03T08:39:57.147Z,8.70
2018-08-03T08:42:29.314Z,9.17
2018-08-03T08:45:00.890Z,8.27
2018-08-03T08:47:35.921Z,8.43
2018-08-03T08:50:10.119Z,8.30
2018-08-03T08:52:48.182Z,8.43
2018-08-03T08:55:20.893Z,9.03
2018-08-03T08:57:52.753Z,9.00
2018-08-03T09:00:32.492Z,8.83
2018-08-03T09:03:06.303Z,8.77
2018-08-03T09:05:40.841Z,8.67
2018-08-03T09:08:12.459Z,7.93
2018-08-03T09:10:45.802Z,8.67
2018-08-03T09:13:19.482Z,8.33
2018-08-03T09:15:53.634Z,15.93
2018-08-03T09:18:26.703Z,9.07
2018-08-03T09:21:00.488Z,8.97
2018-08-03T09:23:31.105Z,8.30
2018-08-03T09:26:04.034Z,8.47
2018-08-03T09:28:36.567Z,9.00
2018-08-03T09:31:08.626Z,8.67
2018-08-03T09:33:43.161Z,8.53
2018-08-03T09:36:17.113Z,8.50
2018-08-03T09:38:48.039Z,8.43
2018-08-03T09:41:20.097Z,8.47
2018-08-03T09:43:54.913Z,8.80
2018-08-03T09:46:34.111Z,9.30
2018-08-03T09:49:08.392Z,9.13
2018-08-03T09:51:41.202Z,8.90
2018-08-03T09:54:14.472Z,8.80
2018-08-03T09:56:49.931Z,8.70
2018-08-03T09:59:25.169Z,9.77
2018-08-03T10:01:57.619Z,8.93
2018-08-03T10:04:27.375Z,9.73
2018-08-03T10:06:58.400Z,9.70
2018-08-03T10:09:32.279Z,9.40
2018-08-03T10:12:08.621Z,8.30
2018-08-03T10:14:41.950Z,8.37
2018-08-03T10:17:23.469Z,8.90
2018-08-03T10:19:58.347Z,8.10
2018-08-03T10:22:30.525Z,8.60
2018-08-03T10:25:02.479Z,9.03
2018-08-03T10:27:37.667Z,9.10
2018-08-03T10:30:08.555Z,8.87
2018-08-03T10:32:43.484Z,8.80
2018-08-03T10:35:16.135Z,8.93
2018-08-03T10:37:47.608Z,8.57
2018-08-03T10:40:20.051Z,8.67
2018-08-03T10:42:56.977Z,8.97
2018-08-03T10:45:36.245Z,8.37
2018-08-03T10:48:20.500Z,8.93
2018-08-03T10:50:54.671Z,8.93
2018-08-03T10:53:25.638Z,9.47
2018-08-03T10:56:00.289Z,9.27
2018-08-03T10:58:34.834Z,9.30
2018-08-03T11:01:08.651Z,8.83
2018-08-03T11:03:42.915Z,9.03
2018-08-03T11:06:20.900Z,9.40
2018-08-03T11:08:53.630Z,8.97
2018-08-03T11:11:31.158Z,9.20
2018-08-03T11:14:07.296Z,9.67
2018-08-03T11:16:42.012Z,9.43
2018-08-03T11:19:13.654Z,9.30
2018-08-03T11:21:52.702Z,9.47
2018-08-03T11:24:29.614Z,8.47
2018-08-03T11:27:03.367Z,9.13
2018-08-03T11:29:35.989Z,9.87
2018-08-03T11:32:14.710Z,9.57
2018-08-03T11:34:47.119Z,9.47
2018-08-03T11:37:22.166Z,9.07
2018-08-03T11:39:57.588Z,8.63
2018-08-03T11:45:21.266Z,9.33
2018-08-03T11:47:54.271Z,9.13
2018-08-03T11:53:12.647Z,9.57
2018-08-03T11:55:47.341Z,8.70
2018-08-03T11:58:17.546Z,9.07
2018-08-03T12:00:49.583Z,9.97
2018-08-03T12:03:20.654Z,9.00
2018-08-03T12:05:58.354Z,9.80
2018-08-03T12:08:35.490Z,8.27
2018-08-03T12:11:09.016Z,8.73
2018-08-03T12:13:41.134Z,8.67
2018-08-03T12:16:12.360Z,7.90
2018-08-03T12:18:43.743Z,8.10
2018-08-03T12:21:15.630Z,7.40
2018-08-03T12:23:47.247Z,7.10
2018-08-03T12:26:19.697Z,7.43
2018-08-03T12:28:53.534Z,7.70
2018-08-03T12:31:23.966Z,8.30
2018-08-03T12:40:45.997Z,8.47
2018-08-03T12:43:26.044Z,7.43
2018-08-03T12:45:58.507Z,6.87
2018-08-03T12:48:34.892Z,7.43
2018-08-03T12:51:12.234Z,7.50
2018-08-03T12:53:46.725Z,6.70
2018-08-03T12:56:19.793Z,6.30
2018-08-03T12:58:54.153Z,6.20
2018-08-03T13:01:28.138Z,6.40
2018-08-03T13:04:06.846Z,6.20
2018-08-03T13:06:40.942Z,6.00
2018-08-03T13:09:12.900Z,6.10
2018-08-03T13:11:46.808Z,6.73
2018-08-03T13:14:25.168Z,6.73
2018-08-03T13:16:59.428Z,5.97
2018-08-03T13:19:33.681Z,6.30
2018-08-03T13:22:06.463Z,5.93
2018-08-03T13:24:44.680Z,4.40
2018-08-03T13:27:15.735Z,5.30
2018-08-03T13:29:49.345Z,5.73
2018-08-03T13:32:19.728Z,5.70
2018-08-03T13:34:55.121Z,5.07
2018-08-03T13:37:26.551Z,5.10
2018-08-03T13:39:59.325Z,5.63
2018-08-03T13:42:32.805Z,4.90
2018-08-03T13:45:09.478Z,4.97
2018-08-03T13:47:40.963Z,4.33
2018-08-03T13:50:13.404Z,4.33
2018-08-03T13:52:49.249Z,4.40
2018-08-03T13:55:22.746Z,4.93
2018-08-03T13:57:53.948Z,4.90
2018-08-03T14:00:26.725Z,4.90
2018-08-03T14:03:01.688Z,4.47
2018-08-03T14:05:35.045Z,4.77
2018-08-03T14:08:07.095Z,4.77
2018-08-03T14:10:41.590Z,4.70
2018-08-03T14:13:16.888Z,4.40
2018-08-03T14:15:55.570Z,4.10
2018-08-03T14:18:28.537Z,4.57
2018-08-03T14:21:01.817Z,4.77
2018-08-03T14:23:37.418Z,4.40
2018-08-03T14:26:19.337Z,4.47
2018-08-03T14:28:51.660Z,5.03
2018-08-03T14:31:22.566Z,4.63
2018-08-03T14:33:58.500Z,4.77
2018-08-03T14:36:33.669Z,4.97
2018-08-03T14:39:09.115Z,5.90
2018-08-03T14:41:41.952Z,5.33
2018-08-03T14:46:57.018Z,5.37
2018-08-03T14:49:32.912Z,5.13
2018-08-03T14:52:05.924Z,4.93
2018-08-03T14:54:39.132Z,5.20
2018-08-03T14:57:13.252Z,4.87
2018-08-03T14:59:48.868Z,5.17
2018-08-03T15:02:26.362Z,4.50
2018-08-03T15:05:05.073Z,5.03
2018-08-03T15:07:40.460Z,4.60
2018-08-03T15:10:16.276Z,4.93
2018-08-03T15:12:52.353Z,4.80
2018-08-03T15:15:28.059Z,5.00
2018-08-03T15:18:01.289Z,5.77
2018-08-03T15:20:40.116Z,6.03
2018-08-03T15:23:15.445Z,5.53
2018-08-03T15:25:56.200Z,4.83
2018-08-03T15:28:31.263Z,5.20
2018-08-03T15:31:01.943Z,5.00
2018-08-03T15:33:33.061Z,5.30
2018-08-03T15:36:08.918Z,4.93
2018-08-03T15:38:50.302Z,4.67
2018-08-03T15:41:27.066Z,5.70
2018-08-03T15:44:01.229Z,5.53
2018-08-03T15:46:35.969Z,5.30
2018-08-03T15:49:07.184Z,5.20
2018-08-03T15:51:41.941Z,5.33
2018-08-03T15:54:14.172Z,5.60
2018-08-03T15:56:48.854Z,4.87
2018-08-03T15:59:20.532Z,5.30
2018-08-03T16:01:52.335Z,5.80
2018-08-03T16:04:26.546Z,5.57
2018-08-03T16:07:00.132Z,5.43
2018-08-03T16:09:35.098Z,5.70
2018-08-03T16:12:07.971Z,5.53
2018-08-03T16:14:41.040Z,5.83
2018-08-03T16:17:15.134Z,6.13
2018-08-03T16:19:48.522Z,4.80
2018-08-03T16:22:21.778Z,5.20
2018-08-03T16:24:58.930Z,5.13
2018-08-03T16:27:34.407Z,6.03
2018-08-03T16:30:10.085Z,5.53
2018-08-03T16:32:41.846Z,5.80
2018-08-03T16:35:14.219Z,6.20
2018-08-03T16:37:47.172Z,6.20
2018-08-03T16:40:22.430Z,5.27
2018-08-03T16:42:59.581Z,6.00
2018-08-03T16:45:30.684Z,5.77
2018-08-03T16:48:06.393Z,6.50
2018-08-03T16:50:39.358Z,6.17
2018-08-03T16:53:15.810Z,6.90
2018-08-03T16:55:49.250Z,7.13
2018-08-03T16:58:22.452Z,6.07
2018-08-03T17:00:58.731Z,6.57
2018-08-03T17:03:36.764Z,6.13
2018-08-03T17:06:08.777Z,7.77
2018-08-03T17:08:41.620Z,5.90
2018-08-03T17:11:14.069Z,7.17
2018-08-03T17:13:45.866Z,7.53
2018-08-03T17:16:18.349Z,9.80
2018-08-03T17:18:50.726Z,6.57
2018-08-03T17:21:24.017Z,9.10
2018-08-03T17:23:54.571Z,7.17
2018-08-03T17:26:26.199Z,7.17
2018-08-03T17:29:04.311Z,6.30
2018-08-03T17:31:36.217Z,5.93
2018-08-03T17:34:08.988Z,5.40
2018-08-03T17:36:43.449Z,5.80
2018-08-03T17:39:15.311Z,5.43
2018-08-03T17:41:46.466Z,5.40
2018-08-03T17:44:20.130Z,5.63
2018-08-03T17:46:52.939Z,5.77
2018-08-03T17:49:25.820Z,5.23
2018-08-03T17:51:57.371Z,5.50
2018-08-03T17:54:29.779Z,5.83
2018-08-03T17:57:03.315Z,5.80
2018-08-03T17:59:34.990Z,5.70
2018-08-03T18:02:12.839Z,5.77
2018-08-03T18:04:46.980Z,5.93
2018-08-03T18:07:21.271Z,5.77
2018-08-03T18:09:55.813Z,6.47
2018-08-03T18:12:33.279Z,5.80
2018-08-03T18:15:06.206Z,6.40
2018-08-03T18:17:36.407Z,6.70
2018-08-03T18:20:13.294Z,6.37
2018-08-03T18:23:01.873Z,5.70
2018-08-03T18:25:34.709Z,6.23
2018-08-03T18:28:07.984Z,6.50
2018-08-03T18:30:39.151Z,6.37
2018-08-03T18:33:11.555Z,6.57
2018-08-03T18:35:44.484Z,5.50
2018-08-03T18:38:16.971Z,5.97
2018-08-03T18:40:49.665Z,6.03
2018-08-03T18:43:30.844Z,6.07
2018-08-03T18:46:04.517Z,6.70
2018-08-03T18:48:36.265Z,5.70
2018-08-03T18:51:13.624Z,6.43
2018-08-03T18:53:47.440Z,5.40
2018-08-03T18:56:20.475Z,6.10
2018-08-03T18:58:55.618Z,6.00
2018-08-03T19:01:32.353Z,5.83
2018-08-03T19:04:04.542Z,5.73
2018-08-03T19:06:39.516Z,5.80
2018-08-03T19:09:15.772Z,5.93
2018-08-03T19:11:49.941Z,5.83
2018-08-03T19:14:21.724Z,5.60
2018-08-03T19:16:56.205Z,6.37
2018-08-03T19:19:28.395Z,6.30
2018-08-03T19:21:58.195Z,6.17
2018-08-03T19:24:36.038Z,5.40
2018-08-03T19:27:11.966Z,5.57
2018-08-03T19:29:52.482Z,6.03
2018-08-03T19:32:23.175Z,5.97
2018-08-03T19:34:58.354Z,5.80
2018-08-03T19:37:31.128Z,6.00
2018-08-03T19:40:07.263Z,5.47
2018-08-03T19:42:44.239Z,5.50
2018-08-03T19:45:26.822Z,6.03
2018-08-03T19:47:59.974Z,6.40
2018-08-03T19:50:46.348Z,7.07
2018-08-03T19:53:17.986Z,6.43
2018-08-03T19:55:52.618Z,6.43
2018-08-03T19:58:30.547Z,6.17
2018-08-03T20:01:01.639Z,6.20
2018-08-03T20:03:35.241Z,6.77
2018-08-03T20:08:52.122Z,6.37
2018-08-03T20:11:25.307Z,6.70
2018-08-03T20:13:57.613Z,6.30
2018-08-03T20:16:33.554Z,6.30
2018-08-03T20:19:04.161Z,6.20
2018-08-03T20:21:34.688Z,6.83
2018-08-03T20:24:11.000Z,6.60
2018-08-03T20:26:43.392Z,6.70
2018-08-03T20:29:15.793Z,6.67
2018-08-03T20:31:48.627Z,6.73
2018-08-03T20:34:21.868Z,6.50
2018-08-03T20:36:56.678Z,6.77
2018-08-03T20:39:30.412Z,6.73
2018-08-03T20:42:04.727Z,6.83
2018-08-03T20:44:36.772Z,6.53
2018-08-03T20:47:07.412Z,6.50
2018-08-03T20:49:41.742Z,7.03
2018-08-03T20:52:15.417Z,6.47
2018-08-03T20:54:49.590Z,6.47
2018-08-03T20:57:24.344Z,6.83
2018-08-03T20:59:56.747Z,6.97
2018-08-03T21:02:28.095Z,6.13
2018-08-03T21:05:00.994Z,6.50
2018-08-03T21:07:32.301Z,6.43
2018-08-03T21:10:06.106Z,6.60
2018-08-03T21:12:40.323Z,6.57
2018-08-03T21:15:15.006Z,6.17
2018-08-03T21:17:45.727Z,6.70
2018-08-03T21:20:16.489Z,6.17
2018-08-03T21:22:50.601Z,6.20
2018-08-03T21:25:20.859Z,6.30
2018-08-03T21:27:54.512Z,6.40
2018-08-03T21:30:26.036Z,6.40
2018-08-03T21:32:59.006Z,6.60
2018-08-03T21:35:32.847Z,5.60
2018-08-03T21:38:04.417Z,6.90
2018-08-03T21:40:41.788Z,6.70
2018-08-03T21:43:15.866Z,6.53
2018-08-03T21:45:47.108Z,6.70
2018-08-03T21:48:21.223Z,6.13
2018-08-03T21:50:51.823Z,6.57
2018-08-03T21:53:25.425Z,6.20
2018-08-03T21:55:58.399Z,6.60
2018-08-03T21:58:31.052Z,5.90
2018-08-03T22:01:08.069Z,6.60
2018-08-03T22:03:41.666Z,6.57
2018-08-03T22:06:15.505Z,6.23
2018-08-03T22:08:49.010Z,6.93
2018-08-03T22:11:20.663Z,6.23
2018-08-03T22:14:04.679Z,6.43
2018-08-03T22:16:37.602Z,6.73
2018-08-03T22:19:09.147Z,6.90
2018-08-03T22:21:38.507Z,7.50
2018-08-03T22:24:09.130Z,7.90
2018-08-03T22:26:44.643Z,8.03
2018-08-03T22:29:20.438Z,8.47
2018-08-03T22:31:54.149Z,9.03
2018-08-03T22:34:27.767Z,8.30
2018-08-03T22:37:03.760Z,7.67
2018-08-03T22:39:33.701Z,6.97
2018-08-03T22:42:04.833Z,7.43
2018-08-03T22:44:37.777Z,7.60
2018-08-03T22:47:11.115Z,7.50
2018-08-03T22:50:12.595Z,7.10
2018-08-03T22:52:48.151Z,7.93
2018-08-03T22:55:24.480Z,7.63
2018-08-03T22:57:54.558Z,7.70
2018-08-03T23:00:33.828Z,8.00
2018-08-03T23:03:09.251Z,7.20
2018-08-03T23:05:44.811Z,7.43
2018-08-03T23:08:17.441Z,7.83
2018-08-03T23:10:51.894Z,7.23
2018-08-03T23:13:29.064Z,7.10
2018-08-03T23:16:03.443Z,7.77
2018-08-03T23:18:45.941Z,7.83
2018-08-03T23:21:16.874Z,7.40
2018-08-03T23:23:50.671Z,8.03
2018-08-03T23:26:23.255Z,8.17
2018-08-03T23:31:38.877Z,8.73
2018-08-03T23:34:16.590Z,9.60
2018-08-03T23:36:47.696Z,8.90
2018-08-03T23:39:24.647Z,9.37
2018-08-03T23:42:00.482Z,9.57
2018-08-03T23:44:32.108Z,9.73
2018-08-03T23:47:03.610Z,9.87
2018-08-03T23:49:37.317Z,9.57
2018-08-03T23:52:07.823Z,9.47
2018-08-03T23:54:39.241Z,8.63
2018-08-03T23:57:13.826Z,8.43
2018-08-03T23:59:44.275Z,9.23
